sensor_id;sensor_type;location;lat;lon;timestamp;P1;durP1;ratioP1;P2;durP2;ratioP2
59042;SDS011;44826;51.596;5.624;2023-10-19T00:00:37;7.05;;;4.57;;
59042;SDS011;44826;51.596;5.624;2023-10-19T00:03:09;7.65;;;5.20;;
59042;SDS011;44826;51.596;5.624;2023-10-19T00:05:36;6.70;;;4.50;;
59042;SDS011;44826;51.596;5.624;2023-10-19T00:08:03;6.35;;;4.75;;
59042;SDS011;44826;51.596;5.624;2023-10-19T00:10:44;8.13;;;4.95;;
59042;SDS011;44826;51.596;5.624;2023-10-19T00:13:20;7.45;;;4.82;;
59042;SDS011;44826;51.596;5.624;2023-10-19T00:15:47;6.55;;;4.43;;
59042;SDS011;44826;51.596;5.624;2023-10-19T00:18:13;6.97;;;4.57;;
59042;SDS011;44826;51.596;5.624;2023-10-19T00:20:45;7.80;;;4.68;;
59042;SDS011;44826;51.596;5.624;2023-10-19T00:23:16;7.45;;;4.60;;
59042;SDS011;44826;51.596;5.624;2023-10-19T00:25:49;10.85;;;5.03;;
59042;SDS011;44826;51.596;5.624;2023-10-19T00:28:16;6.82;;;4.53;;
59042;SDS011;44826;51.596;5.624;2023-10-19T00:30:44;7.13;;;5.22;;
59042;SDS011;44826;51.596;5.624;2023-10-19T00:33:11;7.95;;;4.72;;
59042;SDS011;44826;51.596;5.624;2023-10-19T00:35:49;7.45;;;4.97;;
59042;SDS011;44826;51.596;5.624;2023-10-19T00:38:36;7.22;;;4.97;;
59042;SDS011;44826;51.596;5.624;2023-10-19T00:41:03;8.05;;;5.03;;
59042;SDS011;44826;51.596;5.624;2023-10-19T00:43:35;5.93;;;4.35;;
59042;SDS011;44826;51.596;5.624;2023-10-19T00:46:03;6.95;;;5.10;;
59042;SDS011;44826;51.596;5.624;2023-10-19T00:49:16;6.97;;;4.60;;
59042;SDS011;44826;51.596;5.624;2023-10-19T00:51:40;7.18;;;4.57;;
59042;SDS011;44826;51.596;5.624;2023-10-19T00:54:21;7.13;;;4.20;;
59042;SDS011;44826;51.596;5.624;2023-10-19T00:57:01;6.87;;;4.60;;
59042;SDS011;44826;51.596;5.624;2023-10-19T00:59:37;8.32;;;4.72;;
59042;SDS011;44826;51.596;5.624;2023-10-19T01:02:08;7.18;;;4.78;;
59042;SDS011;44826;51.596;5.624;2023-10-19T01:04:55;6.72;;;4.60;;
59042;SDS011;44826;51.596;5.624;2023-10-19T01:07:22;7.93;;;5.20;;
59042;SDS011;44826;51.596;5.624;2023-10-19T01:09:53;7.30;;;5.05;;
59042;SDS011;44826;51.596;5.624;2023-10-19T01:12:21;7.70;;;4.63;;
59042;SDS011;44826;51.596;5.624;2023-10-19T01:15:00;7.13;;;5.15;;
59042;SDS011;44826;51.596;5.624;2023-10-19T01:17:30;7.15;;;5.00;;
59042;SDS011;44826;51.596;5.624;2023-10-19T01:19:56;7.22;;;4.90;;
59042;SDS011;44826;51.596;5.624;2023-10-19T01:22:23;6.55;;;4.90;;
59042;SDS011;44826;51.596;5.624;2023-10-19T01:24:51;6.97;;;4.80;;
59042;SDS011;44826;51.596;5.624;2023-10-19T01:27:18;6.75;;;4.68;;
59042;SDS011;44826;51.596;5.624;2023-10-19T01:29:43;6.00;;;4.53;;
59042;SDS011;44826;51.596;5.624;2023-10-19T01:32:09;7.70;;;5.13;;
59042;SDS011;44826;51.596;5.624;2023-10-19T01:34:36;6.38;;;4.35;;
59042;SDS011;44826;51.596;5.624;2023-10-19T01:37:02;7.57;;;4.95;;
59042;SDS011;44826;51.596;5.624;2023-10-19T01:39:31;6.03;;;4.40;;
59042;SDS011;44826;51.596;5.624;2023-10-19T01:41:57;6.82;;;4.25;;
59042;SDS011;44826;51.596;5.624;2023-10-19T01:44:23;8.48;;;4.60;;
59042;SDS011;44826;51.596;5.624;2023-10-19T01:46:49;5.82;;;4.30;;
59042;SDS011;44826;51.596;5.624;2023-10-19T01:49:15;6.35;;;4.43;;
59042;SDS011;44826;51.596;5.624;2023-10-19T01:51:50;6.68;;;4.28;;
59042;SDS011;44826;51.596;5.624;2023-10-19T01:54:16;6.18;;;4.38;;
59042;SDS011;44826;51.596;5.624;2023-10-19T01:56:43;5.32;;;4.13;;
59042;SDS011;44826;51.596;5.624;2023-10-19T01:59:08;6.45;;;4.28;;
59042;SDS011;44826;51.596;5.624;2023-10-19T02:01:34;7.05;;;4.20;;
59042;SDS011;44826;51.596;5.624;2023-10-19T02:04:03;6.85;;;4.57;;
59042;SDS011;44826;51.596;5.624;2023-10-19T02:06:31;6.43;;;4.13;;
59042;SDS011;44826;51.596;5.624;2023-10-19T02:09:07;5.45;;;3.53;;
59042;SDS011;44826;51.596;5.624;2023-10-19T02:11:41;7.07;;;3.75;;
59042;SDS011;44826;51.596;5.624;2023-10-19T02:14:07;5.95;;;3.80;;
59042;SDS011;44826;51.596;5.624;2023-10-19T02:16:39;5.10;;;3.63;;
59042;SDS011;44826;51.596;5.624;2023-10-19T02:19:08;5.75;;;3.70;;
59042;SDS011;44826;51.596;5.624;2023-10-19T02:21:37;5.07;;;3.63;;
59042;SDS011;44826;51.596;5.624;2023-10-19T02:24:05;4.90;;;3.22;;
59042;SDS011;44826;51.596;5.624;2023-10-19T02:26:32;6.47;;;3.60;;
59042;SDS011;44826;51.596;5.624;2023-10-19T02:28:58;4.50;;;3.00;;
59042;SDS011;44826;51.596;5.624;2023-10-19T02:31:23;4.75;;;3.10;;
59042;SDS011;44826;51.596;5.624;2023-10-19T02:33:52;4.05;;;2.20;;
59042;SDS011;44826;51.596;5.624;2023-10-19T02:36:26;3.20;;;2.08;;
59042;SDS011;44826;51.596;5.624;2023-10-19T02:38:59;4.68;;;1.73;;
59042;SDS011;44826;51.596;5.624;2023-10-19T02:41:32;3.25;;;1.20;;
59042;SDS011;44826;51.596;5.624;2023-10-19T02:44:00;4.45;;;1.40;;
59042;SDS011;44826;51.596;5.624;2023-10-19T02:46:39;2.45;;;0.93;;
59042;SDS011;44826;51.596;5.624;2023-10-19T02:49:07;4.00;;;1.10;;
59042;SDS011;44826;51.596;5.624;2023-10-19T02:51:43;2.13;;;1.50;;
59042;SDS011;44826;51.596;5.624;2023-10-19T02:54:10;2.90;;;1.60;;
59042;SDS011;44826;51.596;5.624;2023-10-19T02:56:43;2.92;;;1.75;;
59042;SDS011;44826;51.596;5.624;2023-10-19T02:59:12;4.88;;;2.20;;
59042;SDS011;44826;51.596;5.624;2023-10-19T03:01:40;5.40;;;2.20;;
59042;SDS011;44826;51.596;5.624;2023-10-19T03:04:09;3.30;;;2.13;;
59042;SDS011;44826;51.596;5.624;2023-10-19T03:06:37;4.45;;;2.35;;
59042;SDS011;44826;51.596;5.624;2023-10-19T03:09:04;3.90;;;2.20;;
59042;SDS011;44826;51.596;5.624;2023-10-19T03:11:38;3.83;;;2.33;;
59042;SDS011;44826;51.596;5.624;2023-10-19T03:14:07;5.13;;;2.50;;
59042;SDS011;44826;51.596;5.624;2023-10-19T03:16:33;4.80;;;2.45;;
59042;SDS011;44826;51.596;5.624;2023-10-19T03:19:00;4.47;;;2.55;;
59042;SDS011;44826;51.596;5.624;2023-10-19T03:21:25;4.88;;;2.70;;
59042;SDS011;44826;51.596;5.624;2023-10-19T03:23:57;4.53;;;2.72;;
59042;SDS011;44826;51.596;5.624;2023-10-19T03:26:24;4.82;;;2.67;;
59042;SDS011;44826;51.596;5.624;2023-10-19T03:28:55;4.47;;;2.80;;
59042;SDS011;44826;51.596;5.624;2023-10-19T03:31:24;3.30;;;2.50;;
59042;SDS011;44826;51.596;5.624;2023-10-19T03:33:50;4.93;;;2.70;;
59042;SDS011;44826;51.596;5.624;2023-10-19T03:36:25;4.60;;;2.83;;
59042;SDS011;44826;51.596;5.624;2023-10-19T03:38:51;4.65;;;3.10;;
59042;SDS011;44826;51.596;5.624;2023-10-19T03:41:18;3.90;;;2.65;;
59042;SDS011;44826;51.596;5.624;2023-10-19T03:43:50;6.47;;;2.90;;
59042;SDS011;44826;51.596;5.624;2023-10-19T03:46:19;5.30;;;2.58;;
59042;SDS011;44826;51.596;5.624;2023-10-19T03:48:53;3.40;;;2.55;;
59042;SDS011;44826;51.596;5.624;2023-10-19T03:51:23;4.93;;;2.70;;
59042;SDS011;44826;51.596;5.624;2023-10-19T03:53:51;3.50;;;2.33;;
59042;SDS011;44826;51.596;5.624;2023-10-19T03:56:20;3.80;;;2.20;;
59042;SDS011;44826;51.596;5.624;2023-10-19T03:58:45;3.75;;;2.25;;
59042;SDS011;44826;51.596;5.624;2023-10-19T04:01:15;4.15;;;2.25;;
59042;SDS011;44826;51.596;5.624;2023-10-19T04:03:41;4.88;;;2.30;;
59042;SDS011;44826;51.596;5.624;2023-10-19T04:06:08;4.25;;;1.90;;
59042;SDS011;44826;51.596;5.624;2023-10-19T04:08:38;2.90;;;1.90;;
59042;SDS011;44826;51.596;5.624;2023-10-19T04:11:04;4.63;;;2.10;;
59042;SDS011;44826;51.596;5.624;2023-10-19T04:13:46;3.28;;;1.98;;
59042;SDS011;44826;51.596;5.624;2023-10-19T04:16:12;3.03;;;1.73;;
59042;SDS011;44826;51.596;5.624;2023-10-19T04:18:39;2.75;;;1.80;;
59042;SDS011;44826;51.596;5.624;2023-10-19T04:21:09;3.08;;;1.90;;
59042;SDS011;44826;51.596;5.624;2023-10-19T04:23:34;3.10;;;2.10;;
59042;SDS011;44826;51.596;5.624;2023-10-19T04:26:00;4.40;;;2.05;;
59042;SDS011;44826;51.596;5.624;2023-10-19T04:28:29;4.13;;;1.80;;
59042;SDS011;44826;51.596;5.624;2023-10-19T04:30:56;2.63;;;1.73;;
59042;SDS011;44826;51.596;5.624;2023-10-19T04:33:26;3.55;;;1.80;;
59042;SDS011;44826;51.596;5.624;2023-10-19T04:35:53;4.68;;;1.70;;
59042;SDS011;44826;51.596;5.624;2023-10-19T04:38:20;2.90;;;1.63;;
59042;SDS011;44826;51.596;5.624;2023-10-19T04:40:46;2.30;;;1.52;;
59042;SDS011;44826;51.596;5.624;2023-10-19T04:43:12;3.03;;;1.80;;
59042;SDS011;44826;51.596;5.624;2023-10-19T04:45:39;3.28;;;1.50;;
59042;SDS011;44826;51.596;5.624;2023-10-19T04:48:05;3.92;;;1.60;;
59042;SDS011;44826;51.596;5.624;2023-10-19T04:50:31;2.50;;;1.58;;
59042;SDS011;44826;51.596;5.624;2023-10-19T04:52:56;3.00;;;1.70;;
59042;SDS011;44826;51.596;5.624;2023-10-19T04:55:21;3.60;;;1.60;;
59042;SDS011;44826;51.596;5.624;2023-10-19T04:57:47;2.72;;;1.38;;
59042;SDS011;44826;51.596;5.624;2023-10-19T05:00:12;4.20;;;1.30;;
59042;SDS011;44826;51.596;5.624;2023-10-19T05:02:42;3.50;;;1.58;;
59042;SDS011;44826;51.596;5.624;2023-10-19T05:05:07;2.88;;;1.40;;
59042;SDS011;44826;51.596;5.624;2023-10-19T05:07:33;2.53;;;1.50;;
59042;SDS011;44826;51.596;5.624;2023-10-19T05:09:59;2.45;;;1.40;;
59042;SDS011;44826;51.596;5.624;2023-10-19T05:12:24;3.40;;;1.70;;
59042;SDS011;44826;51.596;5.624;2023-10-19T05:14:49;3.13;;;1.48;;
59042;SDS011;44826;51.596;5.624;2023-10-19T05:17:15;3.40;;;1.13;;
59042;SDS011;44826;51.596;5.624;2023-10-19T05:19:41;2.70;;;1.20;;
59042;SDS011;44826;51.596;5.624;2023-10-19T05:22:07;2.92;;;1.30;;
59042;SDS011;44826;51.596;5.624;2023-10-19T05:24:34;2.95;;;0.90;;
59042;SDS011;44826;51.596;5.624;2023-10-19T05:26:59;2.88;;;1.08;;
59042;SDS011;44826;51.596;5.624;2023-10-19T05:29:25;3.33;;;0.90;;
59042;SDS011;44826;51.596;5.624;2023-10-19T05:31:51;2.90;;;1.05;;
59042;SDS011;44826;51.596;5.624;2023-10-19T05:34:23;2.55;;;0.90;;
59042;SDS011;44826;51.596;5.624;2023-10-19T05:36:48;2.97;;;0.98;;
59042;SDS011;44826;51.596;5.624;2023-10-19T05:39:14;3.20;;;0.80;;
59042;SDS011;44826;51.596;5.624;2023-10-19T05:41:41;2.30;;;0.90;;
59042;SDS011;44826;51.596;5.624;2023-10-19T05:44:06;3.40;;;0.80;;
59042;SDS011;44826;51.596;5.624;2023-10-19T05:46:31;3.17;;;0.90;;
59042;SDS011;44826;51.596;5.624;2023-10-19T05:48:57;2.78;;;0.75;;
59042;SDS011;44826;51.596;5.624;2023-10-19T05:51:22;3.42;;;0.90;;
59042;SDS011;44826;51.596;5.624;2023-10-19T05:53:48;3.92;;;1.10;;
59042;SDS011;44826;51.596;5.624;2023-10-19T05:56:13;2.35;;;0.80;;
59042;SDS011;44826;51.596;5.624;2023-10-19T05:58:41;2.67;;;0.85;;
59042;SDS011;44826;51.596;5.624;2023-10-19T06:01:06;2.63;;;0.90;;
59042;SDS011;44826;51.596;5.624;2023-10-19T06:03:32;3.03;;;0.80;;
59042;SDS011;44826;51.596;5.624;2023-10-19T06:05:57;3.65;;;1.02;;
59042;SDS011;44826;51.596;5.624;2023-10-19T06:08:23;4.07;;;1.05;;
59042;SDS011;44826;51.596;5.624;2023-10-19T06:10:51;2.55;;;1.05;;
59042;SDS011;44826;51.596;5.624;2023-10-19T06:13:17;1.90;;;0.80;;
59042;SDS011;44826;51.596;5.624;2023-10-19T06:15:43;3.60;;;1.05;;
59042;SDS011;44826;51.596;5.624;2023-10-19T06:18:08;1.58;;;0.77;;
59042;SDS011;44826;51.596;5.624;2023-10-19T06:20:35;3.03;;;1.00;;
59042;SDS011;44826;51.596;5.624;2023-10-19T06:23:01;3.22;;;1.00;;
59042;SDS011;44826;51.596;5.624;2023-10-19T06:25:29;2.58;;;1.00;;
59042;SDS011;44826;51.596;5.624;2023-10-19T06:27:55;4.95;;;1.10;;
59042;SDS011;44826;51.596;5.624;2023-10-19T06:30:22;3.88;;;1.20;;
59042;SDS011;44826;51.596;5.624;2023-10-19T06:32:51;2.97;;;0.95;;
59042;SDS011;44826;51.596;5.624;2023-10-19T06:35:21;2.47;;;0.95;;
59042;SDS011;44826;51.596;5.624;2023-10-19T06:37:48;3.63;;;1.02;;
59042;SDS011;44826;51.596;5.624;2023-10-19T06:40:14;5.00;;;1.00;;
59042;SDS011;44826;51.596;5.624;2023-10-19T06:42:41;2.47;;;0.90;;
59042;SDS011;44826;51.596;5.624;2023-10-19T06:45:07;1.95;;;0.80;;
59042;SDS011;44826;51.596;5.624;2023-10-19T06:47:34;2.47;;;0.85;;
59042;SDS011;44826;51.596;5.624;2023-10-19T06:50:04;2.40;;;0.77;;
59042;SDS011;44826;51.596;5.624;2023-10-19T06:52:32;3.78;;;1.00;;
59042;SDS011;44826;51.596;5.624;2023-10-19T06:54:58;2.58;;;0.95;;
59042;SDS011;44826;51.596;5.624;2023-10-19T06:57:23;4.43;;;1.00;;
59042;SDS011;44826;51.596;5.624;2023-10-19T06:59:48;2.60;;;1.00;;
59042;SDS011;44826;51.596;5.624;2023-10-19T07:02:13;3.05;;;1.00;;
59042;SDS011;44826;51.596;5.624;2023-10-19T07:04:39;3.35;;;0.93;;
59042;SDS011;44826;51.596;5.624;2023-10-19T07:07:04;3.38;;;0.77;;
59042;SDS011;44826;51.596;5.624;2023-10-19T07:09:29;3.40;;;0.98;;
59042;SDS011;44826;51.596;5.624;2023-10-19T07:11:55;4.10;;;1.00;;
59042;SDS011;44826;51.596;5.624;2023-10-19T07:14:21;4.03;;;1.10;;
59042;SDS011;44826;51.596;5.624;2023-10-19T07:16:50;3.25;;;1.02;;
59042;SDS011;44826;51.596;5.624;2023-10-19T07:19:16;2.63;;;0.90;;
59042;SDS011;44826;51.596;5.624;2023-10-19T07:21:42;2.17;;;0.90;;
59042;SDS011;44826;51.596;5.624;2023-10-19T07:24:08;2.40;;;0.80;;
59042;SDS011;44826;51.596;5.624;2023-10-19T07:26:36;4.35;;;1.13;;
59042;SDS011;44826;51.596;5.624;2023-10-19T07:29:08;3.78;;;0.90;;
59042;SDS011;44826;51.596;5.624;2023-10-19T07:31:35;2.60;;;1.27;;
59042;SDS011;44826;51.596;5.624;2023-10-19T07:34:00;2.22;;;0.85;;
59042;SDS011;44826;51.596;5.624;2023-10-19T07:36:26;4.90;;;0.98;;
59042;SDS011;44826;51.596;5.624;2023-10-19T07:38:51;3.28;;;0.85;;
59042;SDS011;44826;51.596;5.624;2023-10-19T07:41:16;2.70;;;1.00;;
59042;SDS011;44826;51.596;5.624;2023-10-19T07:43:42;7.85;;;1.10;;
59042;SDS011;44826;51.596;5.624;2023-10-19T07:46:09;2.92;;;0.85;;
59042;SDS011;44826;51.596;5.624;2023-10-19T07:48:34;3.20;;;0.90;;
59042;SDS011;44826;51.596;5.624;2023-10-19T07:50:59;4.78;;;1.35;;
59042;SDS011;44826;51.596;5.624;2023-10-19T07:53:25;5.43;;;1.10;;
59042;SDS011;44826;51.596;5.624;2023-10-19T07:55:50;4.20;;;1.00;;
59042;SDS011;44826;51.596;5.624;2023-10-19T07:58:17;3.65;;;0.98;;
59042;SDS011;44826;51.596;5.624;2023-10-19T08:00:42;3.75;;;1.23;;
59042;SDS011;44826;51.596;5.624;2023-10-19T08:03:09;3.40;;;0.90;;
59042;SDS011;44826;51.596;5.624;2023-10-19T08:05:35;4.88;;;1.10;;
59042;SDS011;44826;51.596;5.624;2023-10-19T08:08:01;5.05;;;1.10;;
59042;SDS011;44826;51.596;5.624;2023-10-19T08:10:28;5.20;;;1.15;;
59042;SDS011;44826;51.596;5.624;2023-10-19T08:12:54;5.28;;;1.20;;
59042;SDS011;44826;51.596;5.624;2023-10-19T08:15:20;4.40;;;1.00;;
59042;SDS011;44826;51.596;5.624;2023-10-19T08:17:46;4.10;;;0.95;;
59042;SDS011;44826;51.596;5.624;2023-10-19T08:20:15;3.45;;;1.10;;
59042;SDS011;44826;51.596;5.624;2023-10-19T08:22:53;4.50;;;1.00;;
59042;SDS011;44826;51.596;5.624;2023-10-19T08:25:21;2.63;;;1.05;;
59042;SDS011;44826;51.596;5.624;2023-10-19T08:27:47;3.55;;;0.77;;
59042;SDS011;44826;51.596;5.624;2023-10-19T08:30:18;5.05;;;0.82;;
59042;SDS011;44826;51.596;5.624;2023-10-19T08:32:44;5.70;;;1.27;;
59042;SDS011;44826;51.596;5.624;2023-10-19T08:35:13;3.90;;;1.10;;
59042;SDS011;44826;51.596;5.624;2023-10-19T08:37:39;4.80;;;1.10;;
59042;SDS011;44826;51.596;5.624;2023-10-19T08:40:11;5.57;;;1.13;;
59042;SDS011;44826;51.596;5.624;2023-10-19T08:42:41;4.93;;;1.20;;
59042;SDS011;44826;51.596;5.624;2023-10-19T08:45:07;3.30;;;0.98;;
59042;SDS011;44826;51.596;5.624;2023-10-19T08:47:35;3.00;;;1.00;;
59042;SDS011;44826;51.596;5.624;2023-10-19T08:50:02;4.68;;;1.10;;
59042;SDS011;44826;51.596;5.624;2023-10-19T08:52:30;4.20;;;1.23;;
59042;SDS011;44826;51.596;5.624;2023-10-19T08:54:57;4.75;;;1.10;;
59042;SDS011;44826;51.596;5.624;2023-10-19T08:57:22;3.90;;;1.13;;
59042;SDS011;44826;51.596;5.624;2023-10-19T08:59:48;3.15;;;1.02;;
59042;SDS011;44826;51.596;5.624;2023-10-19T09:02:14;4.30;;;0.93;;
59042;SDS011;44826;51.596;5.624;2023-10-19T09:04:42;4.47;;;1.20;;
59042;SDS011;44826;51.596;5.624;2023-10-19T09:07:08;4.15;;;1.00;;
59042;SDS011;44826;51.596;5.624;2023-10-19T09:09:35;6.45;;;1.35;;
59042;SDS011;44826;51.596;5.624;2023-10-19T09:12:04;4.45;;;1.10;;
59042;SDS011;44826;51.596;5.624;2023-10-19T09:14:32;4.32;;;1.00;;
59042;SDS011;44826;51.596;5.624;2023-10-19T09:16:59;4.80;;;1.20;;
59042;SDS011;44826;51.596;5.624;2023-10-19T09:22:21;4.70;;;1.13;;
59042;SDS011;44826;51.596;5.624;2023-10-19T09:24:50;5.88;;;1.60;;
59042;SDS011;44826;51.596;5.624;2023-10-19T09:27:18;6.63;;;1.40;;
59042;SDS011;44826;51.596;5.624;2023-10-19T09:29:47;6.13;;;1.38;;
59042;SDS011;44826;51.596;5.624;2023-10-19T09:32:13;3.83;;;1.00;;
59042;SDS011;44826;51.596;5.624;2023-10-19T09:34:39;4.05;;;1.25;;
59042;SDS011;44826;51.596;5.624;2023-10-19T09:37:08;2.08;;;1.02;;
59042;SDS011;44826;51.596;5.624;2023-10-19T09:39:34;5.22;;;1.10;;
59042;SDS011;44826;51.596;5.624;2023-10-19T09:42:10;5.35;;;1.10;;
59042;SDS011;44826;51.596;5.624;2023-10-19T09:44:40;5.22;;;1.55;;
59042;SDS011;44826;51.596;5.624;2023-10-19T09:47:14;6.90;;;1.45;;
59042;SDS011;44826;51.596;5.624;2023-10-19T09:49:48;4.57;;;1.27;;
59042;SDS011;44826;51.596;5.624;2023-10-19T09:52:15;5.50;;;1.48;;
59042;SDS011;44826;51.596;5.624;2023-10-19T09:57:34;7.85;;;1.33;;
59042;SDS011;44826;51.596;5.624;2023-10-19T10:00:04;6.60;;;1.30;;
59042;SDS011;44826;51.596;5.624;2023-10-19T10:02:53;5.22;;;1.58;;
59042;SDS011;44826;51.596;5.624;2023-10-19T10:10:41;4.57;;;0.93;;
59042;SDS011;44826;51.596;5.624;2023-10-19T10:15:57;5.40;;;1.30;;
59042;SDS011;44826;51.596;5.624;2023-10-19T10:18:23;3.63;;;1.13;;
59042;SDS011;44826;51.596;5.624;2023-10-19T10:23:48;5.80;;;1.42;;
59042;SDS011;44826;51.596;5.624;2023-10-19T10:26:19;4.20;;;1.30;;
59042;SDS011;44826;51.596;5.624;2023-10-19T10:31:34;6.15;;;1.42;;
59042;SDS011;44826;51.596;5.624;2023-10-19T10:34:05;5.45;;;1.25;;
59042;SDS011;44826;51.596;5.624;2023-10-19T10:36:56;5.13;;;1.85;;
59042;SDS011;44826;51.596;5.624;2023-10-19T10:39:22;4.65;;;1.60;;
59042;SDS011;44826;51.596;5.624;2023-10-19T10:41:54;6.53;;;1.65;;
59042;SDS011;44826;51.596;5.624;2023-10-19T10:44:20;5.90;;;1.70;;
59042;SDS011;44826;51.596;5.624;2023-10-19T10:46:46;7.45;;;1.70;;
59042;SDS011;44826;51.596;5.624;2023-10-19T10:49:13;6.03;;;1.70;;
59042;SDS011;44826;51.596;5.624;2023-10-19T10:51:40;5.95;;;1.70;;
59042;SDS011;44826;51.596;5.624;2023-10-19T10:54:06;5.85;;;1.88;;
59042;SDS011;44826;51.596;5.624;2023-10-19T10:56:31;5.10;;;1.77;;
59042;SDS011;44826;51.596;5.624;2023-10-19T10:59:12;6.53;;;1.80;;
59042;SDS011;44826;51.596;5.624;2023-10-19T11:01:38;5.97;;;1.80;;
59042;SDS011;44826;51.596;5.624;2023-10-19T11:04:10;4.80;;;1.75;;
59042;SDS011;44826;51.596;5.624;2023-10-19T11:06:45;6.57;;;1.65;;
59042;SDS011;44826;51.596;5.624;2023-10-19T11:09:20;6.38;;;1.55;;
59042;SDS011;44826;51.596;5.624;2023-10-19T11:11:46;6.10;;;1.55;;
59042;SDS011;44826;51.596;5.624;2023-10-19T11:14:14;6.50;;;1.80;;
59042;SDS011;44826;51.596;5.624;2023-10-19T11:16:39;6.07;;;1.77;;
59042;SDS011;44826;51.596;5.624;2023-10-19T11:19:05;4.35;;;1.67;;
59042;SDS011;44826;51.596;5.624;2023-10-19T11:21:30;5.38;;;1.60;;
59042;SDS011;44826;51.596;5.624;2023-10-19T11:23:56;5.30;;;1.58;;
59042;SDS011;44826;51.596;5.624;2023-10-19T11:26:22;6.78;;;1.60;;
59042;SDS011;44826;51.596;5.624;2023-10-19T11:28:57;7.47;;;1.88;;
59042;SDS011;44826;51.596;5.624;2023-10-19T11:31:23;7.75;;;1.70;;
59042;SDS011;44826;51.596;5.624;2023-10-19T11:33:49;5.07;;;1.52;;
59042;SDS011;44826;51.596;5.624;2023-10-19T11:36:18;4.90;;;1.60;;
59042;SDS011;44826;51.596;5.624;2023-10-19T11:38:49;8.73;;;1.63;;
59042;SDS011;44826;51.596;5.624;2023-10-19T11:41:18;5.50;;;1.50;;
59042;SDS011;44826;51.596;5.624;2023-10-19T11:43:46;6.05;;;1.40;;
59042;SDS011;44826;51.596;5.624;2023-10-19T11:46:12;6.22;;;1.50;;
59042;SDS011;44826;51.596;5.624;2023-10-19T11:48:39;6.10;;;1.27;;
59042;SDS011;44826;51.596;5.624;2023-10-19T11:51:07;6.07;;;1.40;;
59042;SDS011;44826;51.596;5.624;2023-10-19T11:53:33;6.30;;;1.58;;
59042;SDS011;44826;51.596;5.624;2023-10-19T11:56:02;5.47;;;1.50;;
59042;SDS011;44826;51.596;5.624;2023-10-19T11:58:29;5.47;;;1.42;;
59042;SDS011;44826;51.596;5.624;2023-10-19T12:00:57;5.93;;;1.48;;
59042;SDS011;44826;51.596;5.624;2023-10-19T12:03:23;7.38;;;1.50;;
59042;SDS011;44826;51.596;5.624;2023-10-19T12:05:48;6.53;;;1.42;;
59042;SDS011;44826;51.596;5.624;2023-10-19T12:08:13;5.38;;;1.10;;
59042;SDS011;44826;51.596;5.624;2023-10-19T12:10:38;4.13;;;1.23;;
59042;SDS011;44826;51.596;5.624;2023-10-19T12:13:04;5.88;;;1.48;;
59042;SDS011;44826;51.596;5.624;2023-10-19T12:15:33;5.80;;;1.33;;
59042;SDS011;44826;51.596;5.624;2023-10-19T12:17:59;4.25;;;1.30;;
59042;SDS011;44826;51.596;5.624;2023-10-19T12:20:25;4.32;;;1.00;;
59042;SDS011;44826;51.596;5.624;2023-10-19T12:22:51;5.85;;;1.23;;
59042;SDS011;44826;51.596;5.624;2023-10-19T12:25:19;4.95;;;1.30;;
59042;SDS011;44826;51.596;5.624;2023-10-19T12:27:53;4.72;;;1.23;;
59042;SDS011;44826;51.596;5.624;2023-10-19T12:30:19;5.93;;;1.40;;
59042;SDS011;44826;51.596;5.624;2023-10-19T12:32:46;7.40;;;1.45;;
59042;SDS011;44826;51.596;5.624;2023-10-19T12:35:14;7.15;;;1.15;;
59042;SDS011;44826;51.596;5.624;2023-10-19T12:37:40;5.07;;;1.30;;
59042;SDS011;44826;51.596;5.624;2023-10-19T12:40:11;7.00;;;1.30;;
59042;SDS011;44826;51.596;5.624;2023-10-19T12:42:52;4.55;;;1.20;;
59042;SDS011;44826;51.596;5.624;2023-10-19T12:45:20;5.45;;;1.15;;
59042;SDS011;44826;51.596;5.624;2023-10-19T12:47:51;4.10;;;1.05;;
59042;SDS011;44826;51.596;5.624;2023-10-19T12:50:18;4.95;;;1.50;;
59042;SDS011;44826;51.596;5.624;2023-10-19T12:52:47;5.65;;;1.30;;
59042;SDS011;44826;51.596;5.624;2023-10-19T12:55:14;5.13;;;1.23;;
59042;SDS011;44826;51.596;5.624;2023-10-19T12:57:39;6.68;;;1.20;;
59042;SDS011;44826;51.596;5.624;2023-10-19T13:00:06;4.45;;;1.50;;
59042;SDS011;44826;51.596;5.624;2023-10-19T13:02:48;5.10;;;1.67;;
59042;SDS011;44826;51.596;5.624;2023-10-19T13:05:14;5.65;;;2.38;;
59042;SDS011;44826;51.596;5.624;2023-10-19T13:07:43;8.90;;;2.28;;
59042;SDS011;44826;51.596;5.624;2023-10-19T13:10:08;7.65;;;2.13;;
59042;SDS011;44826;51.596;5.624;2023-10-19T13:12:34;6.13;;;1.90;;
59042;SDS011;44826;51.596;5.624;2023-10-19T13:14:59;5.97;;;1.88;;
59042;SDS011;44826;51.596;5.624;2023-10-19T13:17:24;6.80;;;2.13;;
59042;SDS011;44826;51.596;5.624;2023-10-19T13:19:50;4.88;;;1.70;;
59042;SDS011;44826;51.596;5.624;2023-10-19T13:22:20;8.65;;;2.10;;
59042;SDS011;44826;51.596;5.624;2023-10-19T13:24:46;6.53;;;2.03;;
59042;SDS011;44826;51.596;5.624;2023-10-19T13:27:12;5.45;;;1.92;;
59042;SDS011;44826;51.596;5.624;2023-10-19T13:29:37;3.95;;;1.40;;
59042;SDS011;44826;51.596;5.624;2023-10-19T13:32:04;5.57;;;1.70;;
59042;SDS011;44826;51.596;5.624;2023-10-19T13:34:30;4.78;;;1.40;;
59042;SDS011;44826;51.596;5.624;2023-10-19T13:36:55;6.65;;;1.58;;
59042;SDS011;44826;51.596;5.624;2023-10-19T13:39:22;4.03;;;1.40;;
59042;SDS011;44826;51.596;5.624;2023-10-19T13:41:50;6.40;;;1.90;;
59042;SDS011;44826;51.596;5.624;2023-10-19T13:44:18;5.05;;;1.52;;
59042;SDS011;44826;51.596;5.624;2023-10-19T13:46:45;3.33;;;1.33;;
59042;SDS011;44826;51.596;5.624;2023-10-19T13:49:11;6.63;;;1.60;;
59042;SDS011;44826;51.596;5.624;2023-10-19T13:51:36;4.97;;;1.52;;
59042;SDS011;44826;51.596;5.624;2023-10-19T13:54:04;4.10;;;1.30;;
59042;SDS011;44826;51.596;5.624;2023-10-19T13:56:29;5.90;;;1.75;;
59042;SDS011;44826;51.596;5.624;2023-10-19T13:58:54;4.80;;;1.40;;
59042;SDS011;44826;51.596;5.624;2023-10-19T14:01:20;6.68;;;1.40;;
59042;SDS011;44826;51.596;5.624;2023-10-19T14:03:49;4.80;;;1.20;;
59042;SDS011;44826;51.596;5.624;2023-10-19T14:06:16;4.35;;;1.50;;
59042;SDS011;44826;51.596;5.624;2023-10-19T14:08:42;4.40;;;1.50;;
59042;SDS011;44826;51.596;5.624;2023-10-19T14:11:07;3.38;;;1.10;;
59042;SDS011;44826;51.596;5.624;2023-10-19T14:13:33;6.28;;;1.30;;
59042;SDS011;44826;51.596;5.624;2023-10-19T14:16:04;3.90;;;1.33;;
59042;SDS011;44826;51.596;5.624;2023-10-19T14:18:30;3.95;;;1.35;;
59042;SDS011;44826;51.596;5.624;2023-10-19T14:20:56;4.80;;;1.60;;
59042;SDS011;44826;51.596;5.624;2023-10-19T14:23:21;5.43;;;1.33;;
59042;SDS011;44826;51.596;5.624;2023-10-19T14:25:46;4.35;;;1.35;;
59042;SDS011;44826;51.596;5.624;2023-10-19T14:28:12;6.32;;;1.50;;
59042;SDS011;44826;51.596;5.624;2023-10-19T14:30:37;4.57;;;1.40;;
59042;SDS011;44826;51.596;5.624;2023-10-19T14:33:03;4.78;;;1.50;;
59042;SDS011;44826;51.596;5.624;2023-10-19T14:35:30;4.47;;;1.50;;
59042;SDS011;44826;51.596;5.624;2023-10-19T14:37:56;3.10;;;1.40;;
59042;SDS011;44826;51.596;5.624;2023-10-19T14:40:25;4.68;;;1.48;;
59042;SDS011;44826;51.596;5.624;2023-10-19T14:42:53;3.70;;;1.40;;
59042;SDS011;44826;51.596;5.624;2023-10-19T14:45:20;3.25;;;1.30;;
59042;SDS011;44826;51.596;5.624;2023-10-19T14:47:50;5.18;;;1.30;;
59042;SDS011;44826;51.596;5.624;2023-10-19T14:50:16;6.72;;;1.70;;
59042;SDS011;44826;51.596;5.624;2023-10-19T14:52:46;4.47;;;1.42;;
59042;SDS011;44826;51.596;5.624;2023-10-19T14:55:13;5.40;;;1.40;;
59042;SDS011;44826;51.596;5.624;2023-10-19T14:57:41;4.82;;;1.45;;
59042;SDS011;44826;51.596;5.624;2023-10-19T15:00:08;4.32;;;1.70;;
59042;SDS011;44826;51.596;5.624;2023-10-19T15:02:46;4.45;;;1.70;;
59042;SDS011;44826;51.596;5.624;2023-10-19T15:05:16;5.38;;;1.50;;
59042;SDS011;44826;51.596;5.624;2023-10-19T15:07:42;5.80;;;1.90;;
59042;SDS011;44826;51.596;5.624;2023-10-19T15:10:12;5.95;;;1.70;;
59042;SDS011;44826;51.596;5.624;2023-10-19T15:12:40;5.00;;;1.70;;